Time;durP1;ratioP1;P1;durP2;ratioP2;P2;SDS_P1;SDS_P2;PMS_P1;PMS_P2;Temp;Humidity;BMP_temperature;BMP_pressure;BME280_temperature;BME280_humidity;BME280_pressure;Samples;Min_cycle;Max_cycle;Signal;HPM_P1;HPM_P2
2024/01/29 00:02:22;;;;;;;;;;;;;;;5.54;50.75;101293.59;4972768;28;19921;-90
2024/01/29 00:04:47;;;;;;;;;;;;;;;5.55;51.02;101289.19;4972324;28;19918;-90
2024/01/29 00:07:12;;;;;;;;;;;;;;;5.57;50.86;101292.56;4972324;28;19921;-88
2024/01/29 00:09:38;;;;;;;;;;;;;;;5.55;50.70;101287.41;4972787;28;19949;-89
2024/01/29 00:12:03;;;;;;;;;;;;;;;5.59;50.87;101290.66;4973526;28;19918;-89
2024/01/29 00:14:29;;;;;;;;;;;;;;;5.59;50.67;101293.28;4972229;28;19911;-91
2024/01/29 00:16:54;;;;;;;;;;;;;;;5.63;50.59;101294.75;4973359;28;19914;-89
2024/01/29 00:19:20;;;;;;;;;;;;;;;5.58;50.78;101297.69;4956115;28;19918;-90
2024/01/29 00:21:45;;;;;;;;;;;;;;;5.53;50.78;101306.81;4973857;28;19922;-89
2024/01/29 00:24:10;;;;;;;;;;;;;;;5.52;50.61;101299.88;4973262;28;19918;-89
2024/01/29 00:26:39;;;;;;;;;;;;;;;5.56;50.95;101306.59;4972184;28;20394;-89
2024/01/29 00:29:05;;;;;;;;;;;;;;;5.59;50.66;101303.78;4971959;28;19953;-91
2024/01/29 00:31:30;;;;;;;;;;;;;;;5.53;50.52;101302.41;4955904;28;19965;-90
2024/01/29 00:33:56;;;;;;;;;;;;;;;5.51;50.99;101301.66;4971345;28;19926;-90
2024/01/29 00:36:21;;;;;;;;;;;;;;;5.42;51.23;101304.91;4955856;28;19914;-90
2024/01/29 00:38:46;;;;;;;;;;;;;;;5.42;50.79;101310.97;4973286;28;20315;-89
2024/01/29 00:41:12;;;;;;;;;;;;;;;5.36;51.01;101321.03;4955811;28;19918;-90
2024/01/29 00:43:37;;;;;;;;;;;;;;;5.36;51.05;101326.25;4971785;28;19961;-90
2024/01/29 00:46:02;;;;;;;;;;;;;;;5.33;51.61;101324.69;4973336;28;20399;-90
2024/01/29 00:48:28;;;;;;;;;;;;;;;5.32;51.39;101323.00;4987965;28;19917;-90
2024/01/29 00:50:55;;;;;;;;;;;;;;;5.29;51.50;101320.59;4971789;28;19969;-90
2024/01/29 00:53:20;;;;;;;;;;;;;;;5.26;51.46;101333.88;4971811;28;20347;-90
2024/01/29 00:55:46;;;;;;;;;;;;;;;5.21;51.62;101337.75;4972977;28;19934;-90
2024/01/29 00:58:15;;;;;;;;;;;;;;;5.22;51.38;101344.66;4972915;28;19984;-90
2024/01/29 01:00:41;;;;;;;;;;;;;;;5.21;51.74;101345.59;4971901;28;19914;-90
2024/01/29 01:03:07;;;;;;;;;;;;;;;5.22;51.56;101340.25;4972274;28;19914;-90
2024/01/29 01:05:33;;;;;;;;;;;;;;;5.23;51.76;101333.25;4955879;28;20322;-90
2024/01/29 01:08:00;;;;;;;;;;;;;;;5.27;51.58;101342.56;4971842;28;19914;-89
2024/01/29 01:10:25;;;;;;;;;;;;;;;5.29;51.37;101340.69;4987831;28;19964;-90
2024/01/29 01:12:50;;;;;;;;;;;;;;;5.26;51.74;101338.28;4955694;28;19918;-90
2024/01/29 01:15:15;;;;;;;;;;;;;;;5.25;51.53;101347.06;4971862;28;20411;-90
2024/01/29 01:17:41;;;;;;;;;;;;;;;5.24;51.55;101345.41;4971841;28;19915;-89
2024/01/29 01:20:06;;;;;;;;;;;;;;;5.22;51.66;101342.03;4955584;28;19915;-89
2024/01/29 01:22:32;;;;;;;;;;;;;;;5.23;51.74;101346.34;4976650;28;19914;-89
2024/01/29 01:24:59;;;;;;;;;;;;;;;5.15;51.62;101353.81;4972487;28;20459;-90
2024/01/29 01:27:24;;;;;;;;;;;;;;;5.10;51.96;101341.84;4955766;28;19914;-90
2024/01/29 01:29:49;;;;;;;;;;;;;;;5.07;51.92;101357.75;4971565;28;19918;-90
2024/01/29 01:32:15;;;;;;;;;;;;;;;5.04;51.81;101354.50;4972878;28;19957;-90
2024/01/29 01:34:41;;;;;;;;;;;;;;;5.01;51.66;101344.22;4971471;28;20000;-90
2024/01/29 01:37:06;;;;;;;;;;;;;;;4.99;51.33;101343.50;4955521;28;19925;-90
2024/01/29 01:39:31;;;;;;;;;;;;;;;4.93;51.31;101351.72;4971565;28;19914;-89
2024/01/29 01:41:57;;;;;;;;;;;;;;;4.89;51.33;101353.72;4972704;28;19914;-89
2024/01/29 01:44:22;;;;;;;;;;;;;;;4.85;51.15;101346.16;4972373;28;19925;-89
2024/01/29 01:46:47;;;;;;;;;;;;;;;4.83;51.27;101356.72;4976866;28;19922;-90
2024/01/29 01:49:14;;;;;;;;;;;;;;;4.82;50.91;101365.50;4958818;28;20379;-89
2024/01/29 01:51:40;;;;;;;;;;;;;;;4.83;51.19;101364.56;4974917;28;19914;-89
2024/01/29 01:54:07;;;;;;;;;;;;;;;4.82;50.95;101360.25;4976232;28;19918;-90
2024/01/29 01:56:32;;;;;;;;;;;;;;;4.83;51.03;101356.72;4976529;28;19921;-89
2024/01/29 01:58:59;;;;;;;;;;;;;;;4.83;50.77;101367.19;4976109;28;19918;-89
2024/01/29 02:01:25;;;;;;;;;;;;;;;4.81;51.11;101361.19;4975934;28;19914;-89
2024/01/29 02:03:50;;;;;;;;;;;;;;;4.76;50.94;101366.72;4975977;28;20358;-89
2024/01/29 02:06:15;;;;;;;;;;;;;;;4.74;50.91;101370.38;4976103;28;20009;-89
2024/01/29 02:08:41;;;;;;;;;;;;;;;4.73;51.18;101372.16;4974848;28;19914;-89
2024/01/29 02:11:06;;;;;;;;;;;;;;;4.73;51.11;101366.06;4974978;28;19914;-89
2024/01/29 02:13:32;;;;;;;;;;;;;;;4.69;51.11;101373.28;4958575;28;19996;-88
2024/01/29 02:15:57;;;;;;;;;;;;;;;4.68;50.86;101373.38;4974459;28;19914;-89
2024/01/29 02:18:22;;;;;;;;;;;;;;;4.65;51.26;101370.94;4975775;28;19921;-89
2024/01/29 02:20:48;;;;;;;;;;;;;;;4.57;51.32;101378.44;4974640;28;20296;-89
2024/01/29 02:23:13;;;;;;;;;;;;;;;4.52;51.33;101383.09;4974550;28;20393;-88
2024/01/29 02:25:38;;;;;;;;;;;;;;;4.52;51.21;101389.19;4975683;28;19918;-88
2024/01/29 02:28:04;;;;;;;;;;;;;;;4.55;51.21;101394.22;4976052;28;20430;-88
2024/01/29 02:30:29;;;;;;;;;;;;;;;4.54;51.13;101394.31;4975568;28;19918;-89
2024/01/29 02:32:54;;;;;;;;;;;;;;;4.55;51.37;101396.00;4958567;28;20280;-87
2024/01/29 02:35:41;;;;;;;;;;;;;;;4.53;51.25;101406.56;4974321;28;20506;-86
2024/01/29 02:38:14;;;;;;;;;;;;;;;4.51;51.18;101408.41;4976455;28;20391;-87
2024/01/29 02:40:57;;;;;;;;;;;;;;;4.49;51.20;101407.66;4974802;28;19921;-88
2024/01/29 02:46:47;;;;;;;;;;;;;;;4.40;51.67;101393.34;4991881;28;19972;-86
2024/01/29 02:49:16;;;;;;;;;;;;;;;4.36;51.81;101406.72;4988324;28;20319;-85
2024/01/29 02:51:41;;;;;;;;;;;;;;;4.32;51.72;101408.66;4998442;28;19914;-86
2024/01/29 03:00:41;;;;;;;;;;;;;;;4.22;52.19;101412.75;5002109;28;19913;-87
2024/01/29 03:03:33;;;;;;;;;;;;;;;4.19;52.12;101405.09;4942639;29;19908;-86
2024/01/29 03:12:29;;;;;;;;;;;;;;;4.09;51.96;101419.66;5041206;28;19965;-86
2024/01/29 03:15:16;;;;;;;;;;;;;;;4.05;51.80;101421.59;5040866;28;19905;-85
2024/01/29 03:20:39;;;;;;;;;;;;;;;4.01;51.86;101424.50;5251427;22;19910;-84
2024/01/29 03:38:52;;;;;;;;;;;;;;;3.90;52.10;101422.50;4942789;29;19962;-86
2024/01/29 03:41:24;;;;;;;;;;;;;;;3.90;52.02;101426.88;4942929;29;19940;-84
2024/01/29 03:44:27;;;;;;;;;;;;;;;3.91;52.12;101418.13;4942452;29;19954;-85
2024/01/29 03:50:27;;;;;;;;;;;;;;;3.86;52.15;101415.78;4657093;26;19909;-84
2024/01/29 03:56:27;;;;;;;;;;;;;;;3.92;51.78;101427.66;5747000;22;19910;-86
2024/01/29 04:04:58;;;;;;;;;;;;;;;3.90;52.01;101437.34;5068076;22;19925;-85
2024/01/29 06:30:25;;;;;;;;;;;;;;;4.37;50.97;101508.59;5094333;23;19932;-85
2024/01/29 06:36:32;;;;;;;;;;;;;;;4.43;50.69;101523.09;5019583;28;19965;-86
2024/01/29 06:39:03;;;;;;;;;;;;;;;4.39;50.71;101513.75;5000483;28;19961;-85
2024/01/29 06:41:29;;;;;;;;;;;;;;;4.38;50.35;101519.91;5000358;28;19898;-85
2024/01/29 06:44:09;;;;;;;;;;;;;;;4.39;50.42;101526.81;4995974;28;19922;-86
2024/01/29 06:53:27;;;;;;;;;;;;;;;4.49;50.54;101529.75;5018904;28;19929;-86
2024/01/29 06:59:17;;;;;;;;;;;;;;;4.57;50.69;101532.78;5009930;28;19929;-86
2024/01/29 07:02:08;;;;;;;;;;;;;;;4.58;50.69;101531.84;5003584;28;19926;-86
2024/01/29 07:04:58;;;;;;;;;;;;;;;4.59;50.66;101539.59;4994798;28;19922;-85
2024/01/29 07:08:10;;;;;;;;;;;;;;;4.58;49.94;101532.69;4982062;28;19923;-85
2024/01/29 07:13:58;;;;;;;;;;;;;;;4.70;50.37;101533.72;4959610;29;20479;-87
2024/01/29 07:16:24;;;;;;;;;;;;;;;4.71;50.27;101532.78;4968678;28;19914;-88
2024/01/29 07:18:49;;;;;;;;;;;;;;;4.69;50.12;101538.13;4957580;28;19918;-87
2024/01/29 07:21:14;;;;;;;;;;;;;;;4.74;49.80;101551.75;4957507;28;19921;-88
2024/01/29 07:23:40;;;;;;;;;;;;;;;4.73;49.68;101542.22;4975211;28;19937;-87
2024/01/29 07:26:05;;;;;;;;;;;;;;;4.76;49.59;101546.44;4975511;28;20312;-87
2024/01/29 07:28:31;;;;;;;;;;;;;;;4.81;49.89;101554.84;4975213;28;20410;-88
2024/01/29 07:30:56;;;;;;;;;;;;;;;4.85;49.48;101545.88;4957051;28;19917;-86
2024/01/29 07:33:22;;;;;;;;;;;;;;;4.89;48.87;101551.78;4957002;28;20368;-87
2024/01/29 07:35:48;;;;;;;;;;;;;;;4.94;49.31;101547.94;4957071;28;19914;-88
2024/01/29 07:38:13;;;;;;;;;;;;;;;4.96;49.19;101550.47;4973840;28;20407;-89
2024/01/29 07:40:39;;;;;;;;;;;;;;;4.97;49.25;101553.00;4976796;28;19972;-89
2024/01/29 07:43:04;;;;;;;;;;;;;;;4.97;49.69;101553.00;4976102;28;19921;-88
2024/01/29 07:45:29;;;;;;;;;;;;;;;4.93;48.96;101555.88;4991998;28;19925;-89
2024/01/29 07:47:55;;;;;;;;;;;;;;;4.90;49.22;101551.69;4976192;28;19949;-89
2024/01/29 07:50:20;;;;;;;;;;;;;;;4.89;49.38;101550.00;4976349;28;19949;-88
2024/01/29 07:52:45;;;;;;;;;;;;;;;4.82;49.07;101553.09;4976320;28;19921;-90
2024/01/29 07:55:11;;;;;;;;;;;;;;;4.85;49.33;101558.13;4974236;28;19917;-90
2024/01/29 07:57:37;;;;;;;;;;;;;;;4.87;49.43;101553.66;4956966;28;19918;-88
2024/01/29 08:00:03;;;;;;;;;;;;;;;4.82;49.68;101548.69;4956716;28;19914;-89
2024/01/29 08:02:28;;;;;;;;;;;;;;;4.81;50.06;101556.63;4956815;28;19921;-89
2024/01/29 08:04:54;;;;;;;;;;;;;;;4.86;50.15;101551.97;4956720;28;20033;-88
2024/01/29 08:07:19;;;;;;;;;;;;;;;4.77;49.95;101564.66;4956492;28;19914;-88
2024/01/29 08:09:45;;;;;;;;;;;;;;;4.79;49.84;101560.19;4956704;28;19966;-88
2024/01/29 08:12:10;;;;;;;;;;;;;;;4.69;49.73;101563.44;4956962;28;19944;-88
2024/01/29 08:14:35;;;;;;;;;;;;;;;4.73;49.72;101554.47;4974498;28;19921;-88
2024/01/29 08:17:01;;;;;;;;;;;;;;;4.77;49.82;101556.81;4974571;28;19918;-88
2024/01/29 08:19:26;;;;;;;;;;;;;;;4.84;49.98;101561.69;4975853;28;19921;-88
2024/01/29 08:21:52;;;;;;;;;;;;;;;4.87;49.35;101567.56;4975825;28;19921;-89
2024/01/29 08:24:17;;;;;;;;;;;;;;;4.89;49.16;101568.31;4991718;28;19929;-89
2024/01/29 08:26:43;;;;;;;;;;;;;;;4.86;49.46;101567.66;4975490;28;19913;-90
2024/01/29 08:29:08;;;;;;;;;;;;;;;4.90;49.42;101575.25;4992738;28;19924;-89
2024/01/29 08:31:33;;;;;;;;;;;;;;;4.92;48.86;101580.38;4992874;28;19920;-89
2024/01/29 08:33:58;;;;;;;;;;;;;;;4.86;48.51;101575.50;4975307;28;20410;-89
2024/01/29 08:36:24;;;;;;;;;;;;;;;4.86;48.81;101581.59;4964593;28;19918;-89
2024/01/29 08:38:49;;;;;;;;;;;;;;;4.91;49.03;101586.56;4971651;28;19918;-88
2024/01/29 08:41:15;;;;;;;;;;;;;;;4.95;48.64;101591.50;4973500;28;19914;-88
2024/01/29 08:43:40;;;;;;;;;;;;;;;4.88;48.55;101578.88;4992283;28;20004;-88
2024/01/29 08:46:06;;;;;;;;;;;;;;;4.85;48.76;101585.16;4992666;28;19937;-89
2024/01/29 08:48:32;;;;;;;;;;;;;;;4.90;48.94;101585.72;4987546;28;19922;-89
2024/01/29 08:50:57;;;;;;;;;;;;;;;4.97;48.96;101587.03;4974939;28;19914;-89
2024/01/29 08:53:22;;;;;;;;;;;;;;;5.13;48.98;101584.31;4975525;28;19914;-89
2024/01/29 08:55:48;;;;;;;;;;;;;;;5.11;48.17;101583.56;4981487;28;19913;-89
2024/01/29 08:58:14;;;;;;;;;;;;;;;4.98;48.14;101591.31;4979436;28;19918;-89
2024/01/29 09:00:39;;;;;;;;;;;;;;;5.10;48.29;101593.22;4979059;28;19976;-90
2024/01/29 09:03:04;;;;;;;;;;;;;;;5.22;48.29;101598.66;4967283;28;19918;-90
2024/01/29 09:05:30;;;;;;;;;;;;;;;5.35;47.78;101599.59;4982054;28;19937;-89
2024/01/29 09:07:55;;;;;;;;;;;;;;;5.39;46.12;101607.16;4981034;28;19918;-90
2024/01/29 09:10:20;;;;;;;;;;;;;;;5.42;46.61;101591.28;4981352;28;19917;-89
2024/01/29 09:12:46;;;;;;;;;;;;;;;5.55;46.40;101601.81;4998874;28;20383;-89
2024/01/29 09:15:11;;;;;;;;;;;;;;;5.56;47.00;101593.03;4998533;28;19917;-90
2024/01/29 09:17:36;;;;;;;;;;;;;;;5.52;44.67;101593.31;4980049;28;19918;-90
2024/01/29 09:20:06;;;;;;;;;;;;;;;5.40;46.06;101589.69;4986804;28;19941;-90
2024/01/29 09:22:31;;;;;;;;;;;;;;;5.53;45.86;101592.38;4961622;28;19920;-90
2024/01/29 09:24:57;;;;;;;;;;;;;;;5.55;45.77;101580.88;4979361;28;19918;-89
2024/01/29 09:27:22;;;;;;;;;;;;;;;5.47;45.47;101577.88;4961846;28;20368;-90
2024/01/29 09:29:47;;;;;;;;;;;;;;;5.49;45.38;101583.88;4993772;28;19918;-89
2024/01/29 09:32:13;;;;;;;;;;;;;;;5.56;45.78;101572.06;4998085;28;19953;-90
2024/01/29 09:34:38;;;;;;;;;;;;;;;5.53;46.45;101571.41;4981109;28;19971;-91
2024/01/29 09:37:03;;;;;;;;;;;;;;;5.55;45.76;101570.38;4981168;28;19917;-90
2024/01/29 09:39:29;;;;;;;;;;;;;;;5.56;45.80;101572.06;4978900;28;19921;-92
2024/01/29 09:42:02;;;;;;;;;;;;;;;5.54;45.89;101562.63;4980934;28;19913;-89
2024/01/29 09:44:28;;;;;;;;;;;;;;;5.61;45.35;101564.75;4979359;28;20315;-91
2024/01/29 09:46:54;;;;;;;;;;;;;;;5.78;45.98;101550.59;4974296;28;19933;-90
2024/01/29 09:49:20;;;;;;;;;;;;;;;5.92;44.82;101549.72;4998422;28;19921;-90
2024/01/29 09:51:46;;;;;;;;;;;;;;;6.13;44.14;101553.59;4977331;28;19918;-91
2024/01/29 09:54:11;;;;;;;;;;;;;;;6.17;44.68;101541.97;4978553;28;20249;-91
2024/01/29 09:56:36;;;;;;;;;;;;;;;6.12;44.20;101557.16;4980118;28;19976;-91
2024/01/29 09:59:02;;;;;;;;;;;;;;;6.07;44.71;101540.06;4970161;28;19964;-89
2024/01/29 10:01:28;;;;;;;;;;;;;;;5.96;44.22;101540.75;4998628;28;19914;-89
2024/01/29 10:03:53;;;;;;;;;;;;;;;5.90;43.91;101541.13;4998728;28;19972;-92
2024/01/29 10:06:19;;;;;;;;;;;;;;;5.97;43.55;101540.66;4979632;28;19921;-90
2024/01/29 10:08:46;;;;;;;;;;;;;;;6.00;44.11;101535.22;4976726;28;20335;-91
2024/01/29 10:11:11;;;;;;;;;;;;;;;6.13;44.78;101535.25;4977966;28;19918;-89
2024/01/29 10:13:37;;;;;;;;;;;;;;;6.18;44.32;101533.16;4976662;28;19925;-90
2024/01/29 10:16:02;;;;;;;;;;;;;;;6.13;44.67;101530.00;4992737;28;19997;-90
2024/01/29 10:18:30;;;;;;;;;;;;;;;6.14;43.96;101531.69;4972915;28;19917;-90
2024/01/29 10:20:59;;;;;;;;;;;;;;;6.15;44.71;101538.63;4974384;28;19910;-91
2024/01/29 10:23:25;;;;;;;;;;;;;;;6.12;42.93;101538.81;4976956;28;19918;-90
2024/01/29 10:26:00;;;;;;;;;;;;;;;6.08;44.26;101536.50;4976204;28;20296;-88
2024/01/29 10:28:26;;;;;;;;;;;;;;;6.12;44.75;101537.97;4977364;28;20319;-90
2024/01/29 10:30:55;;;;;;;;;;;;;;;6.08;44.25;101526.84;4977437;28;19913;-88
2024/01/29 10:33:24;;;;;;;;;;;;;;;6.15;43.03;101522.88;4976356;28;19980;-89
2024/01/29 10:35:50;;;;;;;;;;;;;;;6.24;43.04;101527.50;4975336;28;19918;-87
2024/01/29 10:38:20;;;;;;;;;;;;;;;6.28;42.84;101515.03;4976827;28;19921;-91
2024/01/29 10:40:46;;;;;;;;;;;;;;;6.44;43.50;101522.72;4993849;28;20366;-89
2024/01/29 10:43:21;;;;;;;;;;;;;;;6.60;42.53;101518.13;4976063;28;19925;-88
2024/01/29 10:45:49;;;;;;;;;;;;;;;6.65;41.19;101516.84;4977504;28;19948;-89
2024/01/29 10:48:22;;;;;;;;;;;;;;;6.70;42.46;101503.44;4977403;28;20023;-88
2024/01/29 10:50:48;;;;;;;;;;;;;;;6.82;43.44;101505.22;4995044;28;19965;-90
2024/01/29 10:53:15;;;;;;;;;;;;;;;6.81;43.31;101521.09;4981666;28;19918;-89
2024/01/29 10:55:41;;;;;;;;;;;;;;;6.75;41.16;101503.97;4971149;28;19929;-89
2024/01/29 10:58:07;;;;;;;;;;;;;;;6.69;40.65;101514.91;4972510;28;19965;-89
2024/01/29 11:00:35;;;;;;;;;;;;;;;6.80;41.65;101506.28;4976225;28;20016;-89
2024/01/29 11:03:01;;;;;;;;;;;;;;;6.86;40.77;101505.84;4993179;28;19914;-90
2024/01/29 11:05:27;;;;;;;;;;;;;;;7.02;41.17;101509.09;4991686;28;19922;-90
2024/01/29 11:07:55;;;;;;;;;;;;;;;7.15;40.93;101501.19;4977249;28;19936;-91
2024/01/29 11:10:24;;;;;;;;;;;;;;;7.23;41.33;101504.13;4969649;28;19965;-89
2024/01/29 11:12:51;;;;;;;;;;;;;;;7.23;40.62;101502.34;4995121;28;20308;-89
2024/01/29 11:15:17;;;;;;;;;;;;;;;7.28;39.84;101494.13;4994259;28;19910;-89
2024/01/29 11:17:44;;;;;;;;;;;;;;;7.36;40.95;101491.78;4972906;28;20013;-88
2024/01/29 11:20:11;;;;;;;;;;;;;;;7.34;41.82;101483.19;4994188;28;19913;-88
2024/01/29 11:22:37;;;;;;;;;;;;;;;7.34;39.79;101481.38;4975972;28;19914;-89
2024/01/29 11:25:12;;;;;;;;;;;;;;;7.22;39.65;101468.28;4976094;28;19917;-88
2024/01/29 11:27:38;;;;;;;;;;;;;;;7.04;39.77;101466.97;4975859;28;19925;-89
2024/01/29 11:30:19;;;;;;;;;;;;;;;6.91;40.87;101470.47;4976204;28;19914;-89
2024/01/29 11:32:46;;;;;;;;;;;;;;;6.78;41.68;101484.53;4991678;28;19918;-89
2024/01/29 11:35:13;;;;;;;;;;;;;;;6.62;40.61;101477.69;4972707;28;19956;-89
2024/01/29 11:37:39;;;;;;;;;;;;;;;6.66;41.28;101481.78;4965441;28;19914;-90
2024/01/29 11:40:05;;;;;;;;;;;;;;;6.64;40.90;101483.69;4956910;28;19925;-88
2024/01/29 11:42:30;;;;;;;;;;;;;;;6.61;41.90;101480.44;4972263;28;19918;-88
2024/01/29 11:44:55;;;;;;;;;;;;;;;6.53;41.20;101475.69;4976103;28;19918;-90
2024/01/29 11:47:22;;;;;;;;;;;;;;;6.50;41.84;101475.06;4991780;28;19918;-89
2024/01/29 11:49:48;;;;;;;;;;;;;;;6.51;42.16;101471.50;4975249;28;19922;-88
2024/01/29 11:52:14;;;;;;;;;;;;;;;6.51;41.86;101469.72;4993592;28;19921;-91
2024/01/29 11:54:40;;;;;;;;;;;;;;;6.46;41.02;101466.56;4976105;28;19921;-89
2024/01/29 11:57:07;;;;;;;;;;;;;;;6.41;40.92;101471.28;4975068;28;20280;-90
2024/01/29 11:59:42;;;;;;;;;;;;;;;6.41;41.33;101473.06;4956655;28;19914;-90
2024/01/29 12:02:08;;;;;;;;;;;;;;;6.44;41.24;101468.47;4990118;28;19925;-88
2024/01/29 12:04:33;;;;;;;;;;;;;;;6.37;41.57;101472.44;4970489;28;20323;-88
2024/01/29 12:06:58;;;;;;;;;;;;;;;6.32;41.84;101474.53;4988838;28;20008;-89
2024/01/29 12:09:28;;;;;;;;;;;;;;;6.38;41.90;101474.13;4977055;28;19918;-90
2024/01/29 12:11:54;;;;;;;;;;;;;;;6.48;42.12;101466.47;4973104;28;19918;-90
2024/01/29 12:14:20;;;;;;;;;;;;;;;6.51;41.42;101468.88;4991349;28;19925;-88
2024/01/29 12:16:45;;;;;;;;;;;;;;;6.52;41.27;101471.41;4967015;28;19918;-88
2024/01/29 12:19:10;;;;;;;;;;;;;;;6.52;41.25;101466.16;4970740;28;19926;-90
2024/01/29 12:21:36;;;;;;;;;;;;;;;6.49;41.62;101461.09;4986893;28;19921;-88
2024/01/29 12:24:01;;;;;;;;;;;;;;;6.50;41.11;101464.56;4969871;28;19922;-89
2024/01/29 12:26:30;;;;;;;;;;;;;;;6.56;42.51;101464.16;4986323;28;19918;-88
2024/01/29 12:28:55;;;;;;;;;;;;;;;6.62;40.91;101471.59;4964719;28;20449;-90
2024/01/29 12:31:21;;;;;;;;;;;;;;;6.68;41.87;101469.41;4980268;28;19921;-90
2024/01/29 12:33:47;;;;;;;;;;;;;;;6.71;40.94;101471.00;4991719;28;19914;-90
2024/01/29 12:36:13;;;;;;;;;;;;;;;6.77;41.39;101473.19;4991674;28;20064;-89
2024/01/29 12:38:39;;;;;;;;;;;;;;;6.70;40.98;101464.06;4979496;28;19925;-90
2024/01/29 12:41:05;;;;;;;;;;;;;;;6.77;41.23;101470.56;4970985;28;19925;-90
2024/01/29 12:43:30;;;;;;;;;;;;;;;6.66;41.88;101471.28;4967285;28;20387;-90
2024/01/29 12:46:11;;;;;;;;;;;;;;;6.65;42.23;101464.34;4992256;28;19976;-89
2024/01/29 12:48:37;;;;;;;;;;;;;;;6.60;42.00;101465.63;4974940;28;19945;-89
2024/01/29 12:51:02;;;;;;;;;;;;;;;6.56;41.41;101470.25;4971936;28;20343;-89
2024/01/29 12:53:28;;;;;;;;;;;;;;;6.59;41.62;101475.28;4976748;28;19918;-89
2024/01/29 12:55:53;;;;;;;;;;;;;;;6.60;42.05;101470.88;4955309;28;19946;-90
2024/01/29 12:58:18;;;;;;;;;;;;;;;6.66;40.99;101483.56;4984531;28;19924;-86
2024/01/29 13:00:44;;;;;;;;;;;;;;;6.62;41.51;101476.84;4989659;28;19918;-89
2024/01/29 13:03:12;;;;;;;;;;;;;;;6.72;41.13;101477.94;4990935;28;20399;-90
2024/01/29 13:05:37;;;;;;;;;;;;;;;6.86;40.92;101477.81;4974211;28;19922;-88
2024/01/29 13:08:03;;;;;;;;;;;;;;;7.00;41.24;101485.56;4979676;28;20471;-87
2024/01/29 13:10:30;;;;;;;;;;;;;;;7.04;40.92;101477.47;4975575;28;20400;-89
2024/01/29 13:12:55;;;;;;;;;;;;;;;7.13;40.41;101480.28;4992670;28;19977;-89
2024/01/29 13:15:20;;;;;;;;;;;;;;;7.18;40.75;101472.09;4991694;28;20358;-89
2024/01/29 13:17:46;;;;;;;;;;;;;;;7.22;41.33;101479.63;4990374;28;19914;-87
2024/01/29 13:20:12;;;;;;;;;;;;;;;7.16;41.52;101484.47;4992079;28;20020;-88
2024/01/29 13:22:38;;;;;;;;;;;;;;;7.09;41.63;101484.06;4984417;28;19917;-88
2024/01/29 13:25:05;;;;;;;;;;;;;;;6.99;39.61;101494.38;4990641;28;19953;-91
2024/01/29 13:27:30;;;;;;;;;;;;;;;6.97;40.62;101482.31;4984223;28;19925;-90
2024/01/29 13:29:55;;;;;;;;;;;;;;;6.94;40.88;101479.91;4975049;28;19914;-91
2024/01/29 13:32:21;;;;;;;;;;;;;;;6.87;40.28;101481.28;4988840;28;20296;-89
2024/01/29 13:34:46;;;;;;;;;;;;;;;6.78;40.67;101487.16;4988962;28;20060;-88
2024/01/29 13:37:11;;;;;;;;;;;;;;;6.62;40.63;101485.56;4991956;28;19922;-87
2024/01/29 13:39:37;;;;;;;;;;;;;;;6.61;42.17;101483.88;4992411;28;19918;-90
2024/01/29 13:42:02;;;;;;;;;;;;;;;6.57;41.30;101477.16;4988701;28;20319;-89
2024/01/29 13:44:28;;;;;;;;;;;;;;;6.66;41.07;101486.19;4970812;28;19928;-90
2024/01/29 13:46:53;;;;;;;;;;;;;;;6.69;41.47;101478.97;4977368;28;20315;-90
2024/01/29 13:49:18;;;;;;;;;;;;;;;6.75;40.95;101474.25;4995890;28;19945;-89
2024/01/29 13:51:44;;;;;;;;;;;;;;;6.72;41.27;101477.94;4963106;28;19919;-90
2024/01/29 13:54:10;;;;;;;;;;;;;;;6.67;41.32;101480.00;4960508;28;19910;-90
2024/01/29 13:56:35;;;;;;;;;;;;;;;6.66;42.05;101487.03;4960996;28;19938;-90
2024/01/29 13:59:00;;;;;;;;;;;;;;;6.61;41.36;101489.13;4994177;28;19918;-90
2024/01/29 14:01:26;;;;;;;;;;;;;;;6.56;41.30;101488.63;4994235;28;20481;-90
2024/01/29 14:03:53;;;;;;;;;;;;;;;6.52;41.17;101487.13;4982640;28;19981;-89
2024/01/29 14:06:18;;;;;;;;;;;;;;;5.94;41.76;101393.16;4993719;28;19925;-90
2024/01/29 14:08:43;;;;;;;;;;;;;;;6.36;42.19;101495.22;4993240;28;19913;-90
2024/01/29 14:11:09;;;;;;;;;;;;;;;6.37;42.69;101494.28;4975782;28;19917;-90
2024/01/29 14:13:35;;;;;;;;;;;;;;;6.44;42.57;101499.94;4975893;28;20162;-89
2024/01/29 14:16:01;;;;;;;;;;;;;;;6.46;42.50;101494.59;4974300;28;21459;-89
2024/01/29 14:18:27;;;;;;;;;;;;;;;6.22;42.13;101502.31;4993900;28;19957;-91
2024/01/29 14:20:53;;;;;;;;;;;;;;;6.18;42.39;101500.84;4993982;28;19960;-88
2024/01/29 14:23:18;;;;;;;;;;;;;;;6.14;42.55;101509.88;4981572;28;20375;-90
2024/01/29 14:25:44;;;;;;;;;;;;;;;6.12;42.32;101507.34;4981752;28;19924;-88
2024/01/29 14:28:09;;;;;;;;;;;;;;;6.03;42.21;101508.78;4981712;28;20356;-89
2024/01/29 14:30:36;;;;;;;;;;;;;;;5.98;42.26;101520.53;4959943;28;19925;-91
2024/01/29 14:33:01;;;;;;;;;;;;;;;6.02;42.70;101516.75;4976465;28;19925;-89
2024/01/29 14:35:27;;;;;;;;;;;;;;;6.03;42.62;101511.41;4966743;28;19918;-89
2024/01/29 14:37:52;;;;;;;;;;;;;;;6.03;42.74;101505.31;4977412;28;19913;-89
2024/01/29 14:40:18;;;;;;;;;;;;;;;6.02;42.86;101501.88;4994862;28;20264;-89
2024/01/29 14:42:43;;;;;;;;;;;;;;;6.04;43.00;101504.38;4977424;28;20395;-89
2024/01/29 14:45:10;;;;;;;;;;;;;;;6.04;43.25;101504.38;4993239;28;20361;-89
2024/01/29 14:47:35;;;;;;;;;;;;;;;6.03;43.40;101502.69;4994659;28;19914;-89
2024/01/29 14:50:00;;;;;;;;;;;;;;;6.00;42.47;101508.16;4993540;28;19934;-89
2024/01/29 14:52:26;;;;;;;;;;;;;;;5.98;42.67;101510.88;4976568;28;19924;-90
2024/01/29 14:54:51;;;;;;;;;;;;;;;5.97;42.64;101510.97;4973326;28;19957;-91
2024/01/29 14:57:17;;;;;;;;;;;;;;;5.93;42.93;101512.09;4969599;28;19926;-91
2024/01/29 14:59:43;;;;;;;;;;;;;;;5.82;43.04;101511.91;4994424;28;19914;-89
2024/01/29 15:02:08;;;;;;;;;;;;;;;5.78;43.10;101520.91;4976241;28;20455;-89
2024/01/29 15:04:33;;;;;;;;;;;;;;;5.79;43.57;101507.69;4976569;28;20422;-91
2024/01/29 15:06:59;;;;;;;;;;;;;;;5.81;43.10;101513.69;4976526;28;19920;-90
2024/01/29 15:09:24;;;;;;;;;;;;;;;5.77;43.95;101525.31;4993102;28;19914;-91
2024/01/29 15:11:49;;;;;;;;;;;;;;;5.73;43.37;101522.03;4989739;28;19924;-90
2024/01/29 15:14:15;;;;;;;;;;;;;;;5.74;43.85;101526.34;4990633;28;19921;-88
2024/01/29 15:16:40;;;;;;;;;;;;;;;5.71;44.28;101530.94;4992742;28;20410;-91
2024/01/29 15:19:06;;;;;;;;;;;;;;;5.66;44.42;101531.25;4991475;28;19965;-89
2024/01/29 15:21:31;;;;;;;;;;;;;;;5.64;43.77;101534.91;4992623;28;19968;-90
2024/01/29 15:23:57;;;;;;;;;;;;;;;5.61;43.91;101529.84;4993767;28;20005;-89
2024/01/29 15:26:23;;;;;;;;;;;;;;;5.59;44.19;101537.81;4992471;28;20000;-90
2024/01/29 15:28:48;;;;;;;;;;;;;;;5.62;44.23;101547.25;4976070;28;20004;-89
2024/01/29 15:31:14;;;;;;;;;;;;;;;5.50;44.37;101553.28;4993714;28;19952;-89
2024/01/29 15:33:39;;;;;;;;;;;;;;;5.40;44.23;101556.47;4968653;28;20388;-91
2024/01/29 15:36:05;;;;;;;;;;;;;;;5.27;44.66;101559.94;4973660;28;19925;-90
2024/01/29 15:38:30;;;;;;;;;;;;;;;5.28;44.60;101552.00;4962410;28;19922;-89
2024/01/29 15:40:56;;;;;;;;;;;;;;;5.18;44.88;101550.00;4976863;28;20029;-90
2024/01/29 15:43:22;;;;;;;;;;;;;;;5.15;44.96;101553.66;4980229;28;19918;-88
2024/01/29 15:45:47;;;;;;;;;;;;;;;5.04;45.38;101554.31;4992339;28;19940;-90
2024/01/29 15:48:15;;;;;;;;;;;;;;;5.08;45.28;101565.44;4973371;28;20533;-89
2024/01/29 15:50:41;;;;;;;;;;;;;;;5.11;45.29;101573.09;4976100;28;20383;-88
2024/01/29 15:53:06;;;;;;;;;;;;;;;5.17;45.55;101570.09;4991001;28;19921;-89
2024/01/29 15:55:31;;;;;;;;;;;;;;;5.19;45.54;101568.25;4978791;28;19909;-89
2024/01/29 15:57:57;;;;;;;;;;;;;;;5.14;45.24;101577.31;4993752;28;19920;-89
2024/01/29 16:00:22;;;;;;;;;;;;;;;5.04;45.74;101577.03;4960779;28;19929;-89
2024/01/29 16:02:47;;;;;;;;;;;;;;;5.09;45.52;101572.34;4973748;28;19914;-88
2024/01/29 16:05:13;;;;;;;;;;;;;;;5.11;45.42;101573.94;4972278;28;20367;-89
2024/01/29 16:07:38;;;;;;;;;;;;;;;5.13;45.54;101571.22;4956275;28;20443;-88
2024/01/29 16:10:04;;;;;;;;;;;;;;;5.13;45.49;101570.38;4973313;28;20326;-88
2024/01/29 16:12:29;;;;;;;;;;;;;;;5.08;45.52;101574.13;4973675;28;19921;-89
2024/01/29 16:14:55;;;;;;;;;;;;;;;5.10;45.40;101574.03;4956097;28;20010;-89